Time;durP1;ratioP1;P1;durP2;ratioP2;P2;SDS_P1;SDS_P2;PMS_P1;PMS_P2;Temp;Humidity;BMP_temperature;BMP_pressure;BME280_temperature;BME280_humidity;BME280_pressure;Samples;Min_cycle;Max_cycle;Signal;HPM_P1;HPM_P2
2021/04/09 00:00:42;;;;;;;34.93;16.50;;;;;;;1.80;66.69;99731.47;114353;1206;103548;-67
2021/04/09 00:03:15;;;;;;;32.05;14.85;;;;;;;1.83;66.98;99739.26;114469;1206;103053;-67
2021/04/09 00:05:44;;;;;;;32.50;15.15;;;;;;;1.87;66.74;99735.66;114465;1206;103543;-66
2021/04/09 00:08:12;;;;;;;32.30;15.25;;;;;;;1.88;66.87;99742.63;114439;1206;103051;-67
2021/04/09 00:10:39;;;;;;;34.30;15.33;;;;;;;1.88;66.54;99744.38;114482;1206;103159;-67
2021/04/09 00:13:08;;;;;;;32.50;15.40;;;;;;;1.90;66.85;99742.56;114478;1206;103165;-68
2021/04/09 00:15:36;;;;;;;35.77;16.67;;;;;;;1.92;66.85;99749.52;114468;1206;103185;-66
2021/04/09 00:18:03;;;;;;;31.50;16.00;;;;;;;1.95;66.87;99742.47;114369;1206;103746;-67
2021/04/09 00:20:30;;;;;;;32.50;15.80;;;;;;;1.95;66.83;99748.56;114505;1206;103082;-67
2021/04/09 00:22:57;;;;;;;34.40;16.90;;;;;;;1.96;66.57;99739.79;114508;1206;103079;-67
2021/04/09 00:25:24;;;;;;;34.80;16.75;;;;;;;1.95;66.62;99750.34;114477;1206;103127;-67
2021/04/09 00:27:51;;;;;;;34.90;16.60;;;;;;;1.93;66.73;99745.12;114482;1205;103178;-67
2021/04/09 00:30:27;;;;;;;33.95;16.15;;;;;;;1.90;66.60;99747.81;114443;1206;103192;-67
2021/04/09 00:32:54;;;;;;;32.60;15.90;;;;;;;1.88;66.41;99745.25;114515;1205;103171;-66
2021/04/09 00:35:22;;;;;;;36.70;16.70;;;;;;;1.87;66.92;99738.28;114493;1206;103162;-67
2021/04/09 00:37:51;;;;;;;34.55;16.85;;;;;;;1.86;66.52;99741.80;114528;1206;103204;-67
2021/04/09 00:40:20;;;;;;;30.95;14.95;;;;;;;1.87;66.47;99745.27;114480;1206;103245;-68
2021/04/09 00:42:47;;;;;;;42.00;17.90;;;;;;;1.85;66.63;99745.33;114471;1206;103277;-67
2021/04/09 00:45:15;;;;;;;35.77;16.77;;;;;;;1.85;66.46;99747.95;114461;1206;103236;-69
2021/04/09 00:47:43;;;;;;;32.60;17.50;;;;;;;1.85;66.43;99749.70;114454;1206;103124;-69
2021/04/09 00:50:12;;;;;;;34.40;15.60;;;;;;;1.83;66.58;99756.77;114466;1206;103159;-68
2021/04/09 00:52:40;;;;;;;35.10;16.60;;;;;;;1.78;66.52;99760.38;114509;1206;103517;-66
2021/04/09 00:55:09;;;;;;;36.90;18.00;;;;;;;1.74;66.60;99753.48;114474;1205;103162;-67
2021/04/09 00:57:37;;;;;;;35.87;16.93;;;;;;;1.73;66.58;99764.88;114480;1206;103084;-66
2021/04/09 01:00:08;;;;;;;35.95;16.65;;;;;;;1.71;66.55;99760.55;114452;1206;103095;-66
2021/04/09 01:02:36;;;;;;;35.20;16.50;;;;;;;1.68;66.70;99760.63;114490;1206;103204;-66
2021/04/09 01:05:12;;;;;;;34.90;16.50;;;;;;;1.66;66.98;99763.30;114526;1206;103190;-66
2021/04/09 01:07:43;;;;;;;36.85;16.65;;;;;;;1.63;66.85;99769.45;114466;1206;103156;-67
2021/04/09 01:10:12;;;;;;;34.65;16.40;;;;;;;1.62;66.60;99765.14;114512;1206;103094;-67
2021/04/09 01:12:39;;;;;;;35.67;16.67;;;;;;;1.63;66.95;99763.38;114482;1206;103053;-67
2021/04/09 01:15:08;;;;;;;35.97;16.73;;;;;;;1.60;66.81;99764.33;114463;1206;103056;-66
2021/04/09 01:18:00;;;;;;;35.87;15.97;;;;;;;1.59;66.77;99770.46;114495;1206;103050;-68
2021/04/09 01:20:30;;;;;;;34.75;17.00;;;;;;;1.57;66.65;99769.64;114476;1205;103092;-67
2021/04/09 01:22:57;;;;;;;35.70;15.75;;;;;;;1.55;66.97;99768.81;114481;1205;103175;-68
2021/04/09 01:25:49;;;;;;;33.10;15.80;;;;;;;1.53;66.77;99770.61;114462;1206;103082;-67
2021/04/09 01:28:24;;;;;;;34.30;15.30;;;;;;;1.50;66.77;99770.68;114428;1206;103155;-67
2021/04/09 01:30:57;;;;;;;31.20;14.80;;;;;;;1.47;66.66;99770.75;114498;1206;103255;-67
2021/04/09 01:33:47;;;;;;;32.35;15.70;;;;;;;1.44;66.83;99769.05;114432;1206;103115;-66
2021/04/09 01:36:34;;;;;;;31.20;15.60;;;;;;;1.43;66.86;99772.56;114456;1206;103210;-66
2021/04/09 01:39:13;;;;;;;35.70;17.00;;;;;;;1.44;67.03;99776.91;114481;1206;103088;-68
2021/04/09 01:41:42;;;;;;;29.35;14.55;;;;;;;1.41;67.03;99777.02;114510;1206;103127;-66
2021/04/09 01:44:11;;;;;;;30.50;14.10;;;;;;;1.41;66.73;99779.64;114499;1207;103194;-66
2021/04/09 01:46:42;;;;;;;32.65;15.30;;;;;;;1.41;66.95;99776.14;114458;1205;103178;-68
2021/04/09 01:49:11;;;;;;;32.20;14.70;;;;;;;1.41;66.76;99776.14;114478;1206;103062;-67
2021/04/09 01:51:40;;;;;;;34.20;15.60;;;;;;;1.39;66.77;99767.45;114450;1206;103168;-69
2021/04/09 01:54:10;;;;;;;33.30;15.23;;;;;;;1.37;66.86;99777.10;114530;1206;103153;-67
2021/04/09 01:56:39;;;;;;;33.45;15.40;;;;;;;1.33;66.83;99774.55;114500;1206;103252;-68
2021/04/09 01:59:07;;;;;;;33.87;16.23;;;;;;;1.31;66.70;99772.88;114434;1205;103153;-68
2021/04/09 02:01:37;;;;;;;36.00;15.10;;;;;;;1.29;66.73;99774.67;114512;1206;103056;-68
2021/04/09 02:04:05;;;;;;;33.65;15.85;;;;;;;1.26;66.85;99774.73;114486;1206;103162;-67
2021/04/09 02:06:36;;;;;;;33.70;16.00;;;;;;;1.25;67.08;99770.39;114491;1206;103194;-67
2021/04/09 02:09:04;;;;;;;33.70;15.95;;;;;;;1.21;66.68;99777.48;114501;1206;103088;-67
2021/04/09 02:11:36;;;;;;;35.15;15.25;;;;;;;1.18;66.70;99778.39;114483;1206;103082;-68
2021/04/09 02:14:04;;;;;;;34.70;15.20;;;;;;;1.14;66.76;99778.51;114489;1206;103134;-68
2021/04/09 02:16:32;;;;;;;29.13;13.47;;;;;;;1.11;66.66;99776.80;114463;1206;103137;-68
2021/04/09 02:19:00;;;;;;;27.60;11.53;;;;;;;1.09;66.82;99780.37;114495;1206;103075;-68
2021/04/09 02:21:27;;;;;;;30.20;13.50;;;;;;;1.05;66.84;99776.94;114483;1206;103069;-67
2021/04/09 02:23:54;;;;;;;32.93;15.27;;;;;;;1.04;66.75;99776.09;114525;1206;103082;-67
2021/04/09 02:26:23;;;;;;;29.00;13.85;;;;;;;1.03;66.63;99770.87;114484;1206;103204;-66
2021/04/09 02:28:50;;;;;;;32.65;15.90;;;;;;;1.03;66.84;99781.34;114490;1206;103184;-67
2021/04/09 02:31:17;;;;;;;31.10;15.35;;;;;;;1.06;66.76;99776.04;114466;1205;103647;-66
2021/04/09 02:33:44;;;;;;;30.60;14.25;;;;;;;1.06;67.22;99770.80;114491;1206;103190;-66
2021/04/09 02:36:15;;;;;;;33.40;15.00;;;;;;;1.06;66.90;99772.58;114420;1206;103124;-68
2021/04/09 02:38:47;;;;;;;35.35;15.30;;;;;;;1.08;66.91;99776.02;114481;1206;103050;-67
2021/04/09 02:41:16;;;;;;;31.07;14.70;;;;;;;1.10;66.99;99776.85;114502;1206;103086;-67
2021/04/09 02:43:44;;;;;;;31.10;14.60;;;;;;;1.08;66.88;99778.64;114513;1206;103152;-67
2021/04/09 02:46:20;;;;;;;35.00;14.90;;;;;;;1.07;67.00;99775.14;114482;1205;103172;-67
2021/04/09 02:48:52;;;;;;;29.50;14.47;;;;;;;1.06;66.89;99776.04;114434;1206;103024;-66
2021/04/09 02:51:22;;;;;;;32.65;14.90;;;;;;;1.06;66.80;99775.19;114447;1206;103124;-66
2021/04/09 02:53:52;;;;;;;35.10;15.35;;;;;;;1.05;66.86;99776.94;114471;1206;103203;-66
2021/04/09 02:56:22;;;;;;;31.80;14.75;;;;;;;1.05;66.83;99779.55;114479;1206;103078;-66
2021/04/09 02:58:51;;;;;;;33.15;15.10;;;;;;;1.04;67.01;99777.83;114506;1206;103638;-66
2021/04/09 03:01:23;;;;;;;30.75;13.25;;;;;;;1.04;66.98;99780.45;114451;1205;103056;-67
2021/04/09 03:03:56;;;;;;;32.85;15.15;;;;;;;1.01;66.93;99777.93;114483;1206;103111;-66
2021/04/09 03:06:23;;;;;;;32.43;14.97;;;;;;;1.00;66.88;99790.15;114449;1206;103085;-67
2021/04/09 03:08:50;;;;;;;31.10;14.30;;;;;;;0.98;66.82;99778.84;114484;1206;103146;-66
2021/04/09 03:11:21;;;;;;;29.47;14.23;;;;;;;0.96;66.92;99783.25;114493;1206;103130;-67
2021/04/09 03:13:49;;;;;;;32.85;14.90;;;;;;;0.94;67.23;99777.18;114423;1206;103079;-65
2021/04/09 03:16:18;;;;;;;35.80;15.45;;;;;;;0.94;67.04;99792.90;114503;1206;103079;-66
2021/04/09 03:18:47;;;;;;;37.05;15.25;;;;;;;0.93;66.75;99790.33;114466;1206;103099;-66
2021/04/09 03:21:14;;;;;;;30.30;14.00;;;;;;;0.89;66.99;99786.89;114473;1206;103107;-66
2021/04/09 03:23:41;;;;;;;30.20;14.20;;;;;;;0.83;66.89;99790.52;114440;1206;103229;-66
2021/04/09 03:26:09;;;;;;;32.60;15.20;;;;;;;0.83;67.04;99794.88;114459;1206;103114;-65
2021/04/09 03:28:36;;;;;;;37.40;16.10;;;;;;;0.79;67.11;99791.47;114472;1204;103059;-67
2021/04/09 03:31:03;;;;;;;34.00;17.75;;;;;;;0.79;67.08;99798.48;114473;1206;103166;-67
2021/04/09 03:33:30;;;;;;;37.85;19.50;;;;;;;0.76;66.88;99799.39;114504;1205;103175;-67
2021/04/09 03:35:57;;;;;;;39.40;18.70;;;;;;;0.72;66.94;99790.75;114505;1206;103207;-66
2021/04/09 03:38:24;;;;;;;32.35;16.80;;;;;;;0.69;66.76;99793.42;114413;1206;103155;-66
2021/04/09 03:40:51;;;;;;;32.20;15.10;;;;;;;0.69;66.97;99795.16;114512;1206;103217;-66
2021/04/09 03:43:18;;;;;;;38.50;17.60;;;;;;;0.68;66.71;99802.17;114411;1206;103079;-66
2021/04/09 03:45:45;;;;;;;32.70;15.40;;;;;;;0.67;67.08;99791.71;115059;1206;103245;-67
2021/04/09 03:48:13;;;;;;;31.05;15.50;;;;;;;0.67;67.26;99792.59;114220;1206;103134;-69
2021/04/09 03:50:40;;;;;;;28.93;14.30;;;;;;;0.68;66.79;99799.55;114488;1206;103130;-68
2021/04/09 03:53:07;;;;;;;32.60;15.80;;;;;;;0.66;66.85;99806.58;114409;1206;103082;-66
2021/04/09 03:55:34;;;;;;;33.25;16.25;;;;;;;0.67;66.79;99807.42;114436;1206;103086;-65
2021/04/09 03:58:03;;;;;;;33.00;16.87;;;;;;;0.67;66.82;99800.45;114453;1206;103082;-66
2021/04/09 04:00:29;;;;;;;34.65;15.55;;;;;;;0.65;66.76;99801.35;114413;1206;103085;-66
2021/04/09 04:02:56;;;;;;;32.40;16.10;;;;;;;0.65;67.02;99798.73;114426;1206;103085;-66
2021/04/09 04:05:25;;;;;;;32.60;15.90;;;;;;;0.64;66.76;99805.74;114421;1206;103577;-66
2021/04/09 04:07:52;;;;;;;31.45;14.05;;;;;;;0.65;67.05;99811.83;114487;1206;103057;-69
2021/04/09 04:10:19;;;;;;;26.90;13.00;;;;;;;0.65;67.18;99809.21;114274;1206;103092;-68
2021/04/09 04:12:46;;;;;;;35.90;15.40;;;;;;;0.67;66.88;99812.66;114419;1206;103153;-67
2021/04/09 04:15:13;;;;;;;29.57;14.57;;;;;;;0.68;66.96;99803.91;114419;1206;103153;-66
2021/04/09 04:17:40;;;;;;;30.85;13.40;;;;;;;0.70;66.86;99794.27;114412;1206;103088;-70
2021/04/09 04:20:08;;;;;;;28.20;13.03;;;;;;;0.69;67.29;99801.28;114555;1206;103185;-70
2021/04/09 04:22:35;;;;;;;32.90;14.00;;;;;;;0.69;67.04;99803.02;114400;1206;103414;-69
2021/04/09 04:25:04;;;;;;;32.00;14.40;;;;;;;0.72;67.26;99808.20;114445;1206;103054;-69
2021/04/09 04:27:31;;;;;;;33.80;14.50;;;;;;;0.76;67.06;99820.34;114437;1205;103216;-69
2021/04/09 04:29:58;;;;;;;31.37;13.97;;;;;;;0.78;67.14;99807.23;114425;1206;103088;-68
2021/04/09 04:32:26;;;;;;;34.00;16.75;;;;;;;0.78;66.82;99799.38;114409;1205;103222;-69
2021/04/09 04:34:54;;;;;;;35.00;17.40;;;;;;;0.80;67.21;99806.29;114412;1206;103076;-67
2021/04/09 04:37:21;;;;;;;38.10;18.20;;;;;;;0.80;66.96;99811.53;114446;1206;103124;-68
2021/04/09 04:39:47;;;;;;;32.03;15.80;;;;;;;0.81;67.03;99820.27;114440;1206;103088;-67
2021/04/09 04:42:14;;;;;;;38.17;17.77;;;;;;;0.80;67.34;99822.01;114442;1205;103123;-68
2021/04/09 04:44:43;;;;;;;32.25;15.50;;;;;;;0.84;67.17;99823.67;114458;1206;103265;-67
2021/04/09 04:47:10;;;;;;;30.80;15.20;;;;;;;0.92;67.52;99825.27;114416;1206;103091;-68
2021/04/09 04:49:37;;;;;;;32.20;15.00;;;;;;;0.96;66.97;99819.92;114425;1206;103111;-67
2021/04/09 04:52:04;;;;;;;28.93;14.83;;;;;;;0.98;67.38;99820.76;114515;1205;103158;-67
2021/04/09 04:54:31;;;;;;;31.60;13.30;;;;;;;1.02;67.15;99822.42;114450;1206;103536;-68
2021/04/09 04:56:58;;;;;;;30.55;14.40;;;;;;;1.07;67.44;99817.06;114405;1206;103089;-68
2021/04/09 04:59:24;;;;;;;29.40;15.40;;;;;;;1.13;67.37;99827.42;114443;1206;103085;-69
2021/04/09 05:01:54;;;;;;;29.60;13.90;;;;;;;1.14;67.05;99829.14;114438;1206;103158;-69
2021/04/09 05:04:21;;;;;;;31.60;15.20;;;;;;;1.13;67.16;99829.20;114380;1206;103117;-68
2021/04/09 05:06:48;;;;;;;33.90;16.70;;;;;;;1.09;67.13;99825.76;114438;1206;103487;-69
2021/04/09 05:09:16;;;;;;;30.30;14.60;;;;;;;1.07;66.92;99829.33;114436;1205;103104;-70
2021/04/09 05:11:44;;;;;;;29.05;13.55;;;;;;;1.04;67.16;99827.61;114458;1206;103085;-68
2021/04/09 05:14:11;;;;;;;29.95;13.20;;;;;;;1.03;67.01;99832.00;114414;1206;103107;-69
2021/04/09 05:16:38;;;;;;;29.60;13.10;;;;;;;1.01;67.26;99827.70;114462;1206;103053;-68
2021/04/09 05:19:05;;;;;;;28.15;13.05;;;;;;;1.02;67.12;99829.40;114442;1205;103209;-68
2021/04/09 05:21:33;;;;;;;25.70;11.80;;;;;;;1.01;67.10;99830.33;114418;1206;103088;-67
2021/04/09 05:24:00;;;;;;;28.70;12.10;;;;;;;1.03;67.25;99824.14;114440;1206;103153;-68
2021/04/09 05:26:28;;;;;;;27.60;10.90;;;;;;;1.05;66.94;99831.95;114428;1206;103194;-66
2021/04/09 05:28:55;;;;;;;27.33;10.50;;;;;;;1.06;67.30;99830.22;114466;1206;103059;-70
2021/04/09 05:31:22;;;;;;;29.00;12.10;;;;;;;1.08;67.52;99823.19;114425;1206;104410;-73
2021/04/09 05:33:50;;;;;;;26.85;11.55;;;;;;;1.15;67.18;99825.63;114420;1206;103153;-70
2021/04/09 05:36:16;;;;;;;27.00;11.90;;;;;;;1.22;67.30;99830.74;114452;1206;103526;-71
2021/04/09 05:38:43;;;;;;;32.20;13.10;;;;;;;1.29;67.41;99829.72;114523;1205;103162;-71
2021/04/09 05:41:10;;;;;;;28.60;13.20;;;;;;;1.34;67.14;99835.72;114446;1206;103233;-73
2021/04/09 05:43:37;;;;;;;30.65;14.10;;;;;;;1.39;67.38;99832.98;114412;1206;103127;-75
2021/04/09 05:46:04;;;;;;;30.10;13.50;;;;;;;1.43;67.26;99835.48;114446;1206;103149;-73
2021/04/09 05:48:31;;;;;;;24.57;11.37;;;;;;;1.47;67.63;99828.44;114423;1205;103130;-77
2021/04/09 05:50:58;;;;;;;26.45;10.95;;;;;;;1.51;67.41;99835.34;114429;1205;103082;-72
2021/04/09 05:53:25;;;;;;;27.73;10.90;;;;;;;1.56;67.38;99843.96;114481;1206;103194;-74
2021/04/09 05:55:54;;;;;;;27.67;11.13;;;;;;;1.60;67.18;99835.13;114495;1206;103078;-74
2021/04/09 05:58:21;;;;;;;24.35;10.95;;;;;;;1.63;67.27;99840.27;114517;1206;103542;-74
2021/04/09 06:00:48;;;;;;;27.50;11.90;;;;;;;1.68;66.95;99842.80;114175;1206;103647;-76
2021/04/09 06:03:15;;;;;;;26.10;10.70;;;;;;;1.71;67.42;99845.36;114358;1206;103628;-73
2021/04/09 06:05:42;;;;;;;27.70;12.70;;;;;;;1.74;67.03;99847.91;114384;1206;103082;-73
2021/04/09 06:08:10;;;;;;;24.07;10.90;;;;;;;1.80;67.50;99838.17;114320;1205;103079;-75
2021/04/09 06:10:38;;;;;;;29.20;11.00;;;;;;;1.83;67.37;99838.95;114118;1206;103143;-74
2021/04/09 06:13:05;;;;;;;25.40;10.60;;;;;;;1.87;67.32;99831.84;114221;1206;103543;-74
2021/04/09 06:15:33;;;;;;;21.60;9.50;;;;;;;1.93;67.14;99839.57;114317;1206;103206;-74
2021/04/09 06:18:01;;;;;;;25.75;9.85;;;;;;;2.00;67.33;99842.92;114414;1206;103114;-77
2021/04/09 06:20:29;;;;;;;21.15;9.15;;;;;;;2.06;67.51;99842.75;114462;1206;103185;-75
2021/04/09 06:22:56;;;;;;;23.35;9.40;;;;;;;2.12;67.01;99841.75;114446;1206;103146;-75
2021/04/09 06:25:24;;;;;;;20.57;8.13;;;;;;;2.17;67.49;99837.25;114411;1206;103062;-74
2021/04/09 06:27:53;;;;;;;26.60;9.80;;;;;;;2.22;67.46;99844.09;114466;1205;103050;-74
2021/04/09 06:30:20;;;;;;;23.95;10.00;;;;;;;2.28;66.87;99839.58;114433;1206;103057;-73
2021/04/09 06:32:47;;;;;;;21.35;8.90;;;;;;;2.36;67.15;99837.63;114322;1206;103188;-75
2021/04/09 06:35:15;;;;;;;23.30;9.40;;;;;;;2.42;67.08;99834.84;114479;1206;103053;-77
2021/04/09 06:37:43;;;;;;;27.80;9.90;;;;;;;2.50;67.74;99845.13;114510;1206;103050;-77
2021/04/09 06:40:14;;;;;;;22.97;9.33;;;;;;;2.60;66.92;99837.85;114310;1205;103268;-75
2021/04/09 06:42:42;;;;;;;25.15;9.20;;;;;;;2.68;67.55;99838.51;114469;1206;103165;-75
2021/04/09 06:45:12;;;;;;;25.17;10.10;;;;;;;2.78;67.78;99844.36;114484;1206;103046;-76
2021/04/09 06:47:39;;;;;;;22.55;9.75;;;;;;;2.84;67.59;99846.81;114433;1205;103099;-76
2021/04/09 06:50:08;;;;;;;25.50;8.90;;;;;;;2.92;67.05;99836.95;114385;1206;103121;-76
2021/04/09 06:52:35;;;;;;;22.10;9.00;;;;;;;3.04;67.75;99845.40;114488;1206;103050;-74
2021/04/09 06:55:04;;;;;;;22.65;10.15;;;;;;;3.11;67.28;99836.39;114429;1206;103078;-73
2021/04/09 06:57:35;;;;;;;20.60;8.75;;;;;;;3.16;67.53;99836.28;114493;1206;103053;-74
2021/04/09 07:00:07;;;;;;;25.60;9.60;;;;;;;3.22;67.75;99828.21;114441;1206;103099;-73
2021/04/09 07:02:35;;;;;;;21.80;8.40;;;;;;;3.31;67.15;99827.91;114439;1206;103156;-74
2021/04/09 07:05:05;;;;;;;21.65;8.70;;;;;;;3.38;67.81;99826.81;114402;1206;103252;-73
2021/04/09 07:07:34;;;;;;;18.40;7.07;;;;;;;3.47;67.34;99832.70;114373;1206;103098;-74
2021/04/09 07:10:01;;;;;;;19.45;7.60;;;;;;;3.56;67.44;99830.64;114377;1208;103117;-73
2021/04/09 07:12:36;;;;;;;21.90;8.10;;;;;;;3.68;66.74;99831.16;114400;1206;103143;-72
2021/04/09 07:15:06;;;;;;;23.00;8.10;;;;;;;3.78;67.12;99822.08;114431;1206;103067;-76
2021/04/09 07:17:45;;;;;;;20.95;8.20;;;;;;;3.86;67.37;99820.06;114433;1206;103203;-74
2021/04/09 07:20:26;;;;;;;19.40;7.90;;;;;;;3.97;66.99;99822.33;114385;1206;103258;-75
2021/04/09 07:22:56;;;;;;;18.00;6.30;;;;;;;4.12;67.11;99820.06;114441;1206;103133;-75
2021/04/09 07:25:37;;;;;;;17.95;6.85;;;;;;;4.23;67.13;99824.98;114425;1205;103156;-74
2021/04/09 07:28:16;;;;;;;21.85;6.40;;;;;;;4.36;66.74;99809.62;114439;1206;103121;-74
2021/04/09 07:30:52;;;;;;;15.20;6.10;;;;;;;4.94;66.75;99803.12;114432;1206;103201;-74
2021/04/09 07:33:28;;;;;;;12.45;5.30;;;;;;;5.61;66.37;99793.51;114582;1205;103152;-74
2021/04/09 07:35:59;;;;;;;13.85;4.60;;;;;;;6.25;66.40;99807.59;114443;1206;103053;-76
2021/04/09 07:38:29;;;;;;;11.65;4.65;;;;;;;6.89;66.38;99792.46;114466;1206;103113;-73
2021/04/09 07:40:58;;;;;;;14.77;5.40;;;;;;;7.47;66.10;99797.73;114462;1205;103511;-75
2021/04/09 07:43:31;;;;;;;13.10;4.90;;;;;;;7.96;66.14;99787.34;114485;1206;103065;-73
2021/04/09 07:46:02;;;;;;;14.30;5.10;;;;;;;8.44;65.59;99781.39;114387;1206;103538;-81
2021/04/09 07:48:34;;;;;;;11.00;4.70;;;;;;;8.95;65.81;99789.35;114151;1206;103041;-71
2021/04/09 07:51:04;;;;;;;10.40;4.00;;;;;;;9.45;65.75;99775.98;114229;1206;103050;-72
2021/04/09 07:53:31;;;;;;;11.55;3.60;;;;;;;9.79;65.37;99787.31;114368;1206;103146;-75
2021/04/09 07:56:09;;;;;;;10.20;3.70;;;;;;;10.09;65.21;99799.78;114419;1206;103153;-74
2021/04/09 07:58:39;;;;;;;5.30;3.10;;;;;;;10.35;65.10;99790.25;114396;1206;103149;-76
2021/04/09 08:01:20;;;;;;;10.07;3.60;;;;;;;10.47;64.90;99795.78;114454;1206;103210;-73
2021/04/09 08:03:49;;;;;;;9.35;3.60;;;;;;;10.50;64.75;99776.98;114461;1206;103131;-76
2021/04/09 08:06:20;;;;;;;7.43;4.03;;;;;;;10.71;64.73;99777.47;114396;1206;103120;-74
2021/04/09 08:08:47;;;;;;;11.50;3.93;;;;;;;10.97;64.69;99780.33;114388;1205;103104;-74
2021/04/09 08:11:47;;;;;;;8.70;3.80;;;;;;;11.08;64.01;99771.65;114385;1206;103271;-72
2021/04/09 08:14:22;;;;;;;8.97;3.70;;;;;;;11.16;63.91;99775.52;114189;1206;103095;-73
2021/04/09 08:16:51;;;;;;;6.60;3.20;;;;;;;11.13;63.50;99785.53;114458;1206;103107;-72
2021/04/09 08:19:24;;;;;;;6.70;3.40;;;;;;;11.18;63.20;99780.77;114431;1206;103080;-71
2021/04/09 08:22:00;;;;;;;9.38;3.88;;;;;;;11.61;63.56;99775.29;114480;1206;103163;-69
2021/04/09 08:24:32;;;;;;;7.60;3.70;;;;;;;12.58;62.98;99771.55;114454;1206;103078;-70
2021/04/09 08:27:00;;;;;;;7.45;3.55;;;;;;;13.61;62.66;99771.34;114506;1205;103165;-69
2021/04/09 08:29:30;;;;;;;7.50;3.30;;;;;;;14.46;61.88;99764.06;114437;1205;103554;-77
2021/04/09 08:32:02;;;;;;;6.85;3.30;;;;;;;15.11;61.27;99752.74;114504;1205;103092;-74
2021/04/09 08:34:32;;;;;;;8.40;3.95;;;;;;;15.74;61.26;99757.46;114448;1206;103131;-72
2021/04/09 08:36:59;;;;;;;6.70;3.30;;;;;;;16.48;61.09;99753.91;114411;1206;103224;-77
2021/04/09 08:39:45;;;;;;;6.30;3.10;;;;;;;16.75;60.78;99757.84;114439;1206;103076;-72
2021/04/09 08:42:18;;;;;;;5.25;3.00;;;;;;;16.88;60.21;99763.01;114518;1206;103044;-74
2021/04/09 08:44:46;;;;;;;6.83;3.37;;;;;;;16.69;58.84;99749.48;114487;1206;103069;-74
2021/04/09 08:47:19;;;;;;;7.45;3.35;;;;;;;16.45;59.63;99753.33;114470;1206;103258;-71
2021/04/09 08:49:47;;;;;;;8.05;3.80;;;;;;;17.04;60.03;99753.59;114424;1206;103047;-74
2021/04/09 08:52:16;;;;;;;8.90;3.90;;;;;;;17.27;58.47;99748.84;114467;1206;103044;-74
2021/04/09 08:54:53;;;;;;;7.25;3.65;;;;;;;17.17;58.94;99735.39;114457;1206;103144;-74
2021/04/09 08:57:34;;;;;;;10.10;3.70;;;;;;;17.29;58.84;99733.44;114500;1206;103140;-76
2021/04/09 09:00:08;;;;;;;8.10;3.80;;;;;;;17.48;58.09;99758.67;114444;1206;103166;-74
2021/04/09 09:02:53;;;;;;;7.35;4.20;;;;;;;17.52;58.21;99742.09;114469;1206;103523;-74
2021/04/09 09:05:21;;;;;;;6.60;3.70;;;;;;;17.44;57.97;99735.73;114496;1206;103195;-73
2021/04/09 09:07:51;;;;;;;10.07;4.10;;;;;;;17.36;57.67;99742.65;114426;1206;103099;-72
2021/04/09 09:10:21;;;;;;;6.40;3.30;;;;;;;17.09;57.14;99740.60;114447;1206;103146;-75
2021/04/09 09:13:01;;;;;;;6.37;3.70;;;;;;;16.24;57.64;99750.66;114440;1206;103152;-75
2021/04/09 09:15:46;;;;;;;9.93;3.97;;;;;;;15.99;57.24;99742.00;114459;1206;103275;-74
2021/04/09 09:18:24;;;;;;;9.40;4.50;;;;;;;15.91;56.53;99746.18;114480;1206;103538;-75
2021/04/09 09:21:10;;;;;;;7.57;3.90;;;;;;;15.98;56.65;99737.62;114482;1205;103148;-74
2021/04/09 09:24:05;;;;;;;5.40;3.20;;;;;;;15.65;56.27;99740.31;114476;1206;103069;-73
2021/04/09 09:26:42;;;;;;;7.90;4.05;;;;;;;15.15;56.19;99733.63;114478;1206;103593;-74
2021/04/09 09:29:15;;;;;;;6.87;3.83;;;;;;;14.88;55.98;99726.00;114437;1205;103091;-75
2021/04/09 09:31:55;;;;;;;7.37;3.63;;;;;;;15.23;55.56;99719.59;114488;1206;103408;-75
2021/04/09 09:34:24;;;;;;;9.67;4.50;;;;;;;15.40;55.30;99728.09;114473;1206;103136;-73
2021/04/09 09:37:13;;;;;;;7.93;4.10;;;;;;;15.55;54.85;99717.92;114475;1205;103097;-71
2021/04/09 09:39:49;;;;;;;11.05;4.50;;;;;;;15.55;54.04;99718.76;114498;1206;103076;-72
2021/04/09 09:42:20;;;;;;;9.25;4.65;;;;;;;15.52;53.99;99708.29;114461;1206;103097;-71
2021/04/09 09:44:55;;;;;;;10.67;4.37;;;;;;;15.53;53.76;99717.20;114487;1206;103050;-71
2021/04/09 09:47:32;;;;;;;9.75;4.40;;;;;;;15.55;53.75;99715.24;114482;1206;103124;-73
2021/04/09 09:50:10;;;;;;;10.75;4.30;;;;;;;15.44;53.16;99711.61;114496;1206;103056;-71
2021/04/09 09:53:05;;;;;;;11.00;4.20;;;;;;;15.11;53.61;99713.42;114469;1206;103090;-70
2021/04/09 09:55:41;;;;;;;;;;;;;;;14.76;53.29;99714.45;114480;1213;103079;-72
2021/04/09 09:58:18;;;;;;;10.57;5.17;;;;;;;14.35;53.46;99700.65;114488;1206;103217;-72
2021/04/09 10:00:54;;;;;;;8.73;4.33;;;;;;;13.96;53.06;99694.75;114489;1206;103168;-73
2021/04/09 10:03:27;;;;;;;9.50;4.50;;;;;;;13.61;53.40;99696.50;114452;1206;103079;-73
2021/04/09 10:06:02;;;;;;;10.90;4.60;;;;;;;13.26;51.28;99689.23;114446;1205;103169;-74
2021/04/09 10:08:37;;;;;;;9.87;4.57;;;;;;;12.35;50.52;99693.98;114390;1206;103095;-74
2021/04/09 10:11:08;;;;;;;11.20;4.90;;;;;;;11.81;51.10;99698.50;114437;1206;103104;-75
2021/04/09 10:13:40;;;;;;;11.05;4.80;;;;;;;11.60;51.42;99698.13;114423;1206;103200;-74
2021/04/09 10:16:32;;;;;;;12.70;4.35;;;;;;;11.45;50.84;99697.35;114446;1206;103504;-74
2021/04/09 10:19:06;;;;;;;12.60;4.60;;;;;;;11.34;50.58;99699.86;114348;1206;103138;-76
2021/04/09 10:21:39;;;;;;;12.25;4.90;;;;;;;11.28;49.74;99691.31;114325;1206;103108;-74
2021/04/09 10:24:18;;;;;;;10.50;4.45;;;;;;;11.04;50.09;99679.63;114403;1206;103133;-72
2021/04/09 10:27:02;;;;;;;10.00;4.10;;;;;;;10.87;48.25;99679.77;114342;1206;103146;-74
2021/04/09 10:29:33;;;;;;;15.80;5.50;;;;;;;10.54;49.18;99672.11;114463;1206;103079;-75
2021/04/09 10:32:04;;;;;;;14.17;4.80;;;;;;;10.49;48.53;99661.77;114462;1206;103043;-74
2021/04/09 10:34:33;;;;;;;13.15;4.85;;;;;;;10.42;48.61;99668.42;114398;1206;103149;-74
2021/04/09 10:37:06;;;;;;;13.60;5.35;;;;;;;10.33;48.91;99667.16;114465;1206;103158;-74
2021/04/09 10:39:33;;;;;;;10.60;4.90;;;;;;;10.26;48.30;99677.30;114453;1206;103091;-72
2021/04/09 10:42:04;;;;;;;13.90;4.80;;;;;;;10.13;48.55;99661.27;114409;1206;103207;-74
2021/04/09 10:44:32;;;;;;;13.20;4.70;;;;;;;10.12;48.63;99666.69;114377;1206;103079;-74
2021/04/09 10:47:03;;;;;;;13.73;4.87;;;;;;;10.15;48.63;99653.20;114400;1206;103056;-73
2021/04/09 10:49:35;;;;;;;8.77;4.17;;;;;;;10.30;48.60;99651.41;114400;1205;103152;-73
2021/04/09 10:52:17;;;;;;;12.20;4.30;;;;;;;10.33;48.79;99648.55;114429;1206;103184;-76
2021/04/09 10:54:45;;;;;;;14.53;5.00;;;;;;;10.38;49.00;99637.61;114337;1206;103217;-71
2021/04/09 10:57:19;;;;;;;10.65;4.30;;;;;;;10.40;48.65;99636.59;114363;1206;103172;-74
2021/04/09 10:59:52;;;;;;;11.40;4.80;;;;;;;10.43;48.82;99636.39;114386;1206;103095;-76
2021/04/09 11:02:22;;;;;;;12.20;4.85;;;;;;;10.49;48.83;99634.30;114482;1206;103050;-76
2021/04/09 11:04:57;;;;;;;10.40;4.40;;;;;;;10.47;48.63;99626.44;114380;1206;103149;-80
2021/04/09 11:07:45;;;;;;;10.50;5.00;;;;;;;10.53;48.91;99619.86;114430;1205;103102;-78
2021/04/09 11:10:33;;;;;;;10.80;4.10;;;;;;;10.57;48.64;99627.56;114423;1206;103166;-75
2021/04/09 11:13:04;;;;;;;13.35;4.40;;;;;;;10.57;48.54;99626.70;114463;1206;103203;-77
2021/04/09 11:15:42;;;;;;;10.20;4.10;;;;;;;10.56;48.52;99622.33;114468;1206;103084;-79
2021/04/09 11:18:12;;;;;;;9.73;4.03;;;;;;;10.56;48.33;99623.20;114374;1206;103280;-75
2021/04/09 11:20:46;;;;;;;11.35;4.15;;;;;;;10.58;48.27;99612.45;114444;1206;103124;-76
2021/04/09 11:23:16;;;;;;;14.15;4.90;;;;;;;10.61;48.38;99596.28;114448;1206;103152;-75
2021/04/09 11:25:48;;;;;;;12.80;4.10;;;;;;;10.61;48.13;99588.31;114405;1206;103519;-74
2021/04/09 11:28:26;;;;;;;8.95;3.70;;;;;;;10.66;48.02;99595.98;114447;1206;103123;-75